Time;durP1;ratioP1;P1;durP2;ratioP2;P2;SDS_P1;SDS_P2;PMS_P1;PMS_P2;Temp;Humidity;BMP_temperature;BMP_pressure;BME280_temperature;BME280_humidity;BME280_pressure;Samples;Min_cycle;Max_cycle;Signal;HPM_P1;HPM_P2
2023/11/08 00:00:52;;;;;;;4.05;1.08;;;;;;;23.38;32.72;101229.31;4196277;28;20106;-64
2023/11/08 00:02:54;;;;;;;3.20;1.10;;;;;;;23.39;32.80;101233.72;4196601;28;20068;-65
2023/11/08 00:04:56;;;;;;;3.45;1.00;;;;;;;23.40;32.77;101235.44;4196640;28;20602;-64
2023/11/08 00:06:58;;;;;;;2.50;1.05;;;;;;;23.43;32.66;101228.94;4196689;28;20139;-65
2023/11/08 00:09:00;;;;;;;3.08;1.05;;;;;;;23.42;32.86;101224.56;4196637;28;20063;-65
2023/11/08 00:11:01;;;;;;;3.25;1.25;;;;;;;23.44;32.90;101231.50;4196782;28;20087;-64
2023/11/08 00:13:03;;;;;;;;;;;;;;;23.44;33.04;101227.97;4196909;28;20094;-64
2023/11/08 00:15:07;;;;;;;4.28;1.17;;;;;;;23.42;32.68;101229.94;4195566;28;19955;-64
2023/11/08 00:17:09;;;;;;;3.38;1.20;;;;;;;23.40;33.23;101221.13;4196449;28;20172;-65
2023/11/08 00:19:11;;;;;;;3.85;1.02;;;;;;;23.45;33.09;101230.53;4196340;28;20044;-65
2023/11/08 00:21:13;;;;;;;;;;;;;;;23.45;32.83;101227.84;4196925;28;20483;-64
2023/11/08 00:23:14;;;;;;;2.85;1.13;;;;;;;23.47;33.01;101221.50;4196749;28;19926;-65
2023/11/08 00:25:16;;;;;;;3.78;1.10;;;;;;;23.48;32.83;101220.53;4196310;28;20059;-65
2023/11/08 00:27:17;;;;;;;;;;;;;;;23.49;32.74;101219.53;4196726;28;20045;-65
2023/11/08 00:29:19;;;;;;;3.90;1.25;;;;;;;23.45;33.07;101209.06;4195762;28;19964;-65
2023/11/08 00:31:21;;;;;;;3.92;0.93;;;;;;;23.47;32.99;101214.28;4196344;28;20070;-65
2023/11/08 00:33:23;;;;;;;2.90;0.90;;;;;;;23.51;32.71;101212.19;4196153;28;20144;-64
2023/11/08 00:35:26;;;;;;;2.33;0.90;;;;;;;23.51;32.82;101207.66;4196505;28;20051;-65
2023/11/08 00:37:28;;;;;;;3.97;1.00;;;;;;;23.50;32.70;101207.81;4196228;28;20040;-65
2023/11/08 00:39:29;;;;;;;3.72;1.02;;;;;;;23.51;32.68;101199.63;4196142;28;20048;-65
2023/11/08 00:41:32;;;;;;;;;;;;;;;23.50;32.83;101205.13;4196577;28;20223;-66
2023/11/08 00:43:33;;;;;;;3.45;0.95;;;;;;;23.49;33.05;101212.34;4196231;28;20286;-65
2023/11/08 00:45:35;;;;;;;;;;;;;;;23.51;33.04;101215.72;4196719;28;20041;-66
2023/11/08 00:47:37;;;;;;;2.88;1.02;;;;;;;23.52;32.82;101213.91;4196721;28;20331;-66
2023/11/08 00:49:39;;;;;;;4.10;1.15;;;;;;;23.54;32.75;101210.13;4196041;28;20980;-66
2023/11/08 00:51:42;;;;;;;2.83;1.10;;;;;;;23.55;33.05;101211.81;4196178;28;20048;-65
2023/11/08 00:53:47;;;;;;;4.65;1.00;;;;;;;23.56;33.07;101210.84;4196028;28;20131;-65
2023/11/08 00:55:49;;;;;;;4.07;1.00;;;;;;;23.59;32.71;101212.41;4196336;28;20106;-65
2023/11/08 00:57:51;;;;;;;2.83;1.08;;;;;;;23.58;32.82;101211.56;4195790;28;20057;-66
2023/11/08 00:59:52;;;;;;;;;;;;;;;23.56;32.93;101213.53;4196512;28;20048;-65
2023/11/08 01:01:54;;;;;;;3.17;1.00;;;;;;;23.54;32.91;101212.78;4199489;28;19928;-65
2023/11/08 01:03:56;;;;;;;2.45;0.80;;;;;;;23.55;32.93;101227.06;4199509;28;20533;-65
2023/11/08 01:05:58;;;;;;;3.10;1.00;;;;;;;23.57;32.85;101225.97;4199391;28;20521;-65
2023/11/08 01:08:00;;;;;;;2.72;1.15;;;;;;;23.55;32.85;101224.38;4199352;28;20513;-65
2023/11/08 01:10:02;;;;;;;4.40;1.30;;;;;;;23.60;32.67;101228.41;4199562;28;20430;-66
2023/11/08 01:12:05;;;;;;;3.00;0.93;;;;;;;23.59;32.89;101224.00;4199218;28;20049;-65
2023/11/08 01:14:08;;;;;;;4.30;1.10;;;;;;;23.66;32.68;101232.41;4199337;28;20356;-65
2023/11/08 01:16:09;;;;;;;2.30;0.73;;;;;;;23.68;33.04;101234.97;4199056;28;20189;-65
2023/11/08 01:18:11;;;;;;;2.22;0.88;;;;;;;23.67;33.06;101236.81;4199171;28;20054;-65
2023/11/08 01:20:13;;;;;;;3.08;1.00;;;;;;;23.68;33.05;101241.22;4199300;28;20045;-65
2023/11/08 01:22:16;;;;;;;2.38;0.75;;;;;;;23.68;32.91;101241.22;4199202;28;20048;-65
2023/11/08 01:24:19;;;;;;;3.95;1.00;;;;;;;23.66;33.16;101251.22;4198972;28;20072;-65
2023/11/08 01:26:21;;;;;;;3.00;1.10;;;;;;;23.65;32.96;101243.28;4198767;28;20454;-64
2023/11/08 01:28:23;;;;;;;2.85;1.02;;;;;;;23.65;33.13;101243.28;4199011;28;20367;-65
2023/11/08 01:30:25;;;;;;;2.83;0.90;;;;;;;23.66;32.67;101236.91;4198903;28;20052;-65
2023/11/08 01:32:27;;;;;;;2.67;0.98;;;;;;;23.68;33.06;101248.38;4199276;28;20068;-64
2023/11/08 01:34:28;;;;;;;3.65;1.08;;;;;;;23.67;32.99;101241.31;4197881;28;20564;-65
2023/11/08 01:36:30;;;;;;;2.65;1.00;;;;;;;23.72;32.86;101241.78;4199135;28;20076;-65
2023/11/08 01:38:32;;;;;;;2.83;1.10;;;;;;;23.71;32.69;101234.72;4198965;28;20438;-65
2023/11/08 01:40:34;;;;;;;4.18;0.90;;;;;;;23.75;32.70;101238.84;4198636;28;20048;-65
2023/11/08 01:42:36;;;;;;;2.58;1.00;;;;;;;23.73;32.77;101232.75;4197215;28;20114;-65
2023/11/08 01:44:39;;;;;;;4.40;1.00;;;;;;;23.71;32.53;101242.78;4198634;28;20114;-65
2023/11/08 01:46:41;;;;;;;3.47;1.10;;;;;;;23.72;32.90;101245.31;4198512;28;20049;-64
2023/11/08 01:48:44;;;;;;;2.63;0.90;;;;;;;23.65;32.96;101241.44;4198417;28;20047;-64
2023/11/08 01:50:46;;;;;;;3.50;1.10;;;;;;;23.68;32.92;101243.91;4198637;28;20044;-65
2023/11/08 01:52:48;;;;;;;2.85;0.90;;;;;;;23.68;33.27;101251.94;4198668;28;20469;-65
2023/11/08 01:54:50;;;;;;;2.95;0.93;;;;;;;23.67;32.82;101246.69;4198712;28;20047;-65
2023/11/08 01:56:52;;;;;;;3.15;1.08;;;;;;;23.70;33.23;101249.97;4198368;28;20075;-65
2023/11/08 01:58:54;;;;;;;3.05;1.02;;;;;;;23.72;33.08;101250.69;4198628;28;20069;-64
2023/11/08 02:01:00;;;;;;;4.10;1.02;;;;;;;23.73;32.79;101238.97;4198329;28;20040;-64
2023/11/08 02:03:03;;;;;;;3.72;0.80;;;;;;;23.81;32.75;101253.59;4214132;28;20048;-64
2023/11/08 02:05:06;;;;;;;3.65;1.17;;;;;;;23.79;32.95;101239.44;4197307;28;20052;-65
2023/11/08 02:07:08;;;;;;;4.38;0.98;;;;;;;23.80;33.12;101252.72;4198466;28;20099;-64
2023/11/08 02:09:11;;;;;;;2.40;1.00;;;;;;;23.77;32.96;101248.47;4198282;28;20052;-65
2023/11/08 02:11:13;;;;;;;4.18;1.05;;;;;;;23.76;32.92;101253.97;4197757;28;20059;-65
2023/11/08 02:13:14;;;;;;;;;;;;;;;23.73;32.73;101240.78;4198878;28;20419;-65
2023/11/08 02:15:16;;;;;;;2.67;0.90;;;;;;;23.68;32.91;101246.56;4198372;28;19920;-65
2023/11/08 02:17:18;;;;;;;3.28;1.00;;;;;;;23.63;32.89;101223.75;4198324;28;20430;-65
2023/11/08 02:19:19;;;;;;;4.85;0.95;;;;;;;23.71;32.81;101232.03;4198225;28;20072;-64
2023/11/08 02:21:21;;;;;;;;;;;;;;;23.72;32.74;101237.28;4198716;28;20074;-65
2023/11/08 02:23:23;;;;;;;3.03;0.90;;;;;;;23.74;33.13;101237.13;4198162;28;20023;-65
2023/11/08 02:25:25;;;;;;;;;;;;;;;23.75;32.89;101237.00;4198178;28;20045;-65
2023/11/08 02:27:26;;;;;;;3.25;0.90;;;;;;;23.75;33.20;101234.31;4198025;28;19942;-64
2023/11/08 02:29:28;;;;;;;2.88;0.90;;;;;;;23.80;33.07;101235.78;4197928;28;20048;-64
2023/11/08 02:31:30;;;;;;;2.90;1.10;;;;;;;23.76;33.01;101222.59;4197863;28;20079;-64
2023/11/08 02:33:32;;;;;;;2.35;0.80;;;;;;;23.80;33.01;101231.25;4198103;28;20135;-64
2023/11/08 02:35:34;;;;;;;;;;;;;;;23.78;32.82;101233.22;4198301;28;20052;-64
2023/11/08 02:37:36;;;;;;;2.72;0.98;;;;;;;23.73;32.84;101228.25;4198138;28;20216;-64
2023/11/08 02:39:37;;;;;;;;;;;;;;;23.74;32.95;101231.75;4197949;28;20044;-64
2023/11/08 02:41:39;;;;;;;3.05;1.10;;;;;;;23.72;33.09;101225.66;4197878;28;20023;-65
2023/11/08 02:43:40;;;;;;;3.33;1.10;;;;;;;23.74;32.84;101219.22;4198091;28;20047;-65
2023/11/08 02:45:42;;;;;;;3.05;1.10;;;;;;;23.78;32.83;101217.13;4197800;28;20077;-64
2023/11/08 02:47:44;;;;;;;;;;;;;;;23.80;33.01;101228.56;4197976;28;20135;-65
2023/11/08 02:49:47;;;;;;;3.78;1.08;;;;;;;23.82;32.64;101207.81;4197718;28;19925;-65
2023/11/08 02:51:54;;;;;;;2.95;0.98;;;;;;;23.83;32.73;101206.84;4197604;28;20104;-65
2023/11/08 02:54:00;;;;;;;2.08;0.80;;;;;;;23.83;32.77;101204.16;4197208;28;20090;-64
2023/11/08 02:56:02;;;;;;;3.03;1.08;;;;;;;23.82;33.04;101202.44;4197749;28;20162;-65
2023/11/08 02:58:04;;;;;;;;;;;;;;;23.81;32.84;101203.41;4198072;28;20132;-65
2023/11/08 03:00:06;;;;;;;2.47;0.90;;;;;;;23.79;32.85;101204.53;4197812;28;19920;-65
2023/11/08 03:02:08;;;;;;;2.28;0.85;;;;;;;23.79;32.79;101196.47;4197512;28;20045;-64
2023/11/08 03:04:15;;;;;;;3.20;1.00;;;;;;;23.77;32.99;101194.75;4197470;28;20624;-65
2023/11/08 03:06:19;;;;;;;2.42;0.70;;;;;;;23.80;32.88;101200.88;4197619;28;20052;-65
2023/11/08 03:08:21;;;;;;;2.25;0.80;;;;;;;23.79;32.96;101191.94;4197200;28;20497;-65
2023/11/08 03:10:23;;;;;;;3.40;1.00;;;;;;;23.82;32.82;101194.38;4197308;28;20055;-65
2023/11/08 03:12:24;;;;;;;;;;;;;;;23.84;33.11;101197.78;4197866;28;20053;-65
2023/11/08 03:14:27;;;;;;;2.70;0.90;;;;;;;23.84;33.11;101191.56;4197196;28;19929;-65
2023/11/08 03:16:35;;;;;;;2.95;0.88;;;;;;;23.86;33.06;101194.97;4197411;28;20051;-65
2023/11/08 03:18:36;;;;;;;2.85;1.13;;;;;;;23.92;32.88;101198.00;4197332;28;20185;-65
2023/11/08 03:20:38;;;;;;;;;;;;;;;23.90;32.74;101202.66;4197738;28;20044;-65
2023/11/08 03:22:41;;;;;;;2.45;0.80;;;;;;;23.87;33.16;101194.00;4196325;28;20011;-65
2023/11/08 03:24:45;;;;;;;2.45;0.88;;;;;;;23.84;32.89;101196.94;4196803;28;20131;-65
2023/11/08 03:26:49;;;;;;;2.40;0.82;;;;;;;23.81;33.10;101198.03;4197212;28;20102;-65
2023/11/08 03:28:50;;;;;;;2.92;0.90;;;;;;;23.82;33.34;101204.28;4197248;28;20484;-65
2023/11/08 03:30:52;;;;;;;2.83;0.85;;;;;;;23.86;33.02;101209.25;4197038;28;20044;-65
2023/11/08 03:32:54;;;;;;;;;;;;;;;23.86;33.18;101206.56;4197700;28;20048;-65
2023/11/08 03:34:55;;;;;;;2.95;0.85;;;;;;;23.86;32.96;101211.94;4196024;28;19924;-65
2023/11/08 03:36:57;;;;;;;;;;;;;;;23.89;32.84;101206.31;4197018;28;20358;-65
2023/11/08 03:38:59;;;;;;;3.67;1.10;;;;;;;23.92;32.96;101208.75;4197064;28;19930;-66
2023/11/08 03:41:01;;;;;;;2.78;0.80;;;;;;;23.95;32.58;101194.22;4197018;28;20350;-65
2023/11/08 03:43:03;;;;;;;3.63;0.90;;;;;;;23.97;32.98;101204.84;4196758;28;20057;-65
2023/11/08 03:45:05;;;;;;;2.72;0.80;;;;;;;23.95;32.65;101204.09;4196926;28;20098;-65
2023/11/08 03:47:08;;;;;;;2.65;0.75;;;;;;;23.92;32.63;101205.19;4196743;28;20054;-65
2023/11/08 03:49:09;;;;;;;3.50;0.98;;;;;;;23.88;33.03;101203.75;4196554;28;20056;-65
2023/11/08 03:51:11;;;;;;;;;;;;;;;23.85;32.84;101198.63;4197356;28;20422;-65
2023/11/08 03:53:13;;;;;;;2.88;0.93;;;;;;;23.79;32.93;101196.47;4195378;28;20359;-64
2023/11/08 03:55:15;;;;;;;2.53;0.80;;;;;;;23.74;32.98;101176.22;4196510;28;20089;-64
2023/11/08 03:57:18;;;;;;;1.98;0.90;;;;;;;23.91;32.73;101198.97;4196865;28;20117;-65
2023/11/08 03:59:20;;;;;;;2.78;0.90;;;;;;;23.92;32.81;101198.00;4196746;28;20491;-65
2023/11/08 04:01:21;;;;;;;3.38;0.77;;;;;;;23.95;32.78;101186.16;4196815;28;20368;-64
2023/11/08 04:03:23;;;;;;;2.13;0.60;;;;;;;23.98;32.67;101187.75;4196639;28;20341;-65
2023/11/08 04:05:29;;;;;;;;;;;;;;;23.99;32.94;101187.59;4197076;28;20048;-65
2023/11/08 04:07:30;;;;;;;2.97;0.98;;;;;;;23.96;32.81;101198.59;4196172;28;19921;-64
2023/11/08 04:09:32;;;;;;;;;;;;;;;23.97;32.77;101199.47;4197056;28;20627;-64
2023/11/08 04:11:34;;;;;;;3.20;0.90;;;;;;;23.93;32.78;101198.88;4196631;28;19966;-65
2023/11/08 04:13:35;;;;;;;2.10;0.65;;;;;;;23.91;32.75;101201.66;4196379;28;20537;-65
2023/11/08 04:15:37;;;;;;;3.00;0.90;;;;;;;23.89;32.88;101195.56;4196567;28;20466;-65
2023/11/08 04:17:38;;;;;;;;;;;;;;;23.90;32.83;101199.09;4197030;28;20044;-65
2023/11/08 04:19:40;;;;;;;3.30;0.80;;;;;;;23.87;33.08;101199.38;4196485;28;20051;-65
2023/11/08 04:21:42;;;;;;;2.13;0.80;;;;;;;23.92;33.13;101200.69;4196005;28;20052;-65
2023/11/08 04:23:43;;;;;;;;;;;;;;;23.92;32.90;101199.81;4196804;28;20082;-64
2023/11/08 04:25:49;;;;;;;3.55;0.77;;;;;;;23.93;32.97;101201.56;4196396;28;19924;-64
2023/11/08 04:27:51;;;;;;;3.67;0.90;;;;;;;23.93;33.02;101202.41;4196498;28;20537;-65
2023/11/08 04:29:52;;;;;;;;;;;;;;;23.96;32.90;101200.44;4196737;28;20061;-64
2023/11/08 04:31:54;;;;;;;2.72;0.73;;;;;;;23.92;32.83;101195.31;4196270;28;20315;-64
2023/11/08 04:33:56;;;;;;;3.17;0.82;;;;;;;23.91;33.16;101192.75;4196130;28;20045;-64
2023/11/08 04:35:58;;;;;;;1.95;0.77;;;;;;;23.90;32.74;101178.47;4195925;28;20076;-64
2023/11/08 04:38:00;;;;;;;2.10;0.80;;;;;;;23.93;32.93;101185.44;4195012;28;20072;-64
2023/11/08 04:40:02;;;;;;;;;;;;;;;23.91;32.69;101185.56;4196487;28;20049;-63
2023/11/08 04:42:04;;;;;;;2.78;0.77;;;;;;;23.90;32.98;101183.84;4194806;28;20354;-65
2023/11/08 04:44:05;;;;;;;2.10;0.70;;;;;;;23.95;33.08;101182.63;4194797;28;20044;-64
2023/11/08 04:46:07;;;;;;;2.40;0.85;;;;;;;23.94;32.99;101165.66;4196034;28;20047;-65
2023/11/08 04:48:09;;;;;;;3.40;1.00;;;;;;;23.97;32.88;101167.22;4196191;28;20080;-64
2023/11/08 04:50:11;;;;;;;2.42;0.70;;;;;;;23.99;32.85;101162.59;4195689;28;20056;-63
2023/11/08 04:52:17;;;;;;;2.80;0.90;;;;;;;24.02;32.76;101167.69;4196023;28;20098;-63
2023/11/08 04:54:18;;;;;;;2.67;0.82;;;;;;;24.05;32.93;101170.13;4196190;28;20514;-66
2023/11/08 04:56:20;;;;;;;2.92;0.80;;;;;;;24.03;32.62;101164.84;4196358;28;20503;-64
2023/11/08 04:58:21;;;;;;;2.97;0.90;;;;;;;24.00;32.71;101172.31;4196094;28;20119;-64
2023/11/08 05:00:23;;;;;;;2.75;0.88;;;;;;;23.95;32.84;101170.06;4196227;28;20451;-64
2023/11/08 05:02:25;;;;;;;3.25;0.98;;;;;;;23.94;32.74;101173.72;4195895;28;20066;-64
2023/11/08 05:04:27;;;;;;;3.30;0.73;;;;;;;23.93;32.90;101174.69;4195803;28;20052;-62
2023/11/08 05:06:30;;;;;;;2.13;0.80;;;;;;;23.92;33.07;101172.97;4195967;28;20048;-64
2023/11/08 05:08:32;;;;;;;3.10;0.80;;;;;;;23.97;32.89;101173.44;4196074;28;20041;-64
2023/11/08 05:10:34;;;;;;;3.53;1.00;;;;;;;23.96;32.93;101166.34;4196008;28;20099;-64
2023/11/08 05:12:37;;;;;;;2.35;0.70;;;;;;;23.98;33.06;101169.78;4195876;28;20056;-64
2023/11/08 05:14:38;;;;;;;3.05;0.90;;;;;;;23.95;32.59;101167.38;4194874;28;20218;-64
2023/11/08 05:16:40;;;;;;;;;;;;;;;23.96;32.83;101171.72;4195277;28;20056;-64
2023/11/08 05:18:42;;;;;;;2.13;0.88;;;;;;;23.92;32.87;101173.81;4195705;28;20349;-64
2023/11/08 05:20:44;;;;;;;2.20;0.68;;;;;;;23.96;33.13;101177.09;4195768;28;20044;-64
2023/11/08 05:22:45;;;;;;;3.10;1.00;;;;;;;23.93;32.90;101163.94;4195898;28;20045;-65
2023/11/08 05:24:47;;;;;;;2.75;0.80;;;;;;;23.90;32.68;101170.41;4195981;28;20559;-65
2023/11/08 05:26:50;;;;;;;2.65;0.70;;;;;;;23.93;32.97;101175.53;4195841;28;20132;-65
2023/11/08 05:28:51;;;;;;;1.45;0.60;;;;;;;23.94;33.07;101173.72;4195808;28;20079;-65
2023/11/08 05:30:53;;;;;;;2.60;0.77;;;;;;;23.95;32.76;101166.50;4194757;28;20539;-64
2023/11/08 05:32:55;;;;;;;2.45;0.75;;;;;;;23.96;32.80;101163.66;4195585;28;20045;-65
2023/11/08 05:34:56;;;;;;;;;;;;;;;23.99;32.74;101162.59;4196179;28;20045;-64
2023/11/08 05:37:04;;;;;;;2.33;0.80;;;;;;;24.00;32.89;101166.94;4195896;28;20375;-65
2023/11/08 05:39:06;;;;;;;2.17;0.70;;;;;;;24.01;32.92;101166.84;4195730;28;20123;-63
2023/11/08 05:41:07;;;;;;;;;;;;;;;24.03;32.78;101166.69;4196298;28;20373;-64
2023/11/08 05:43:09;;;;;;;2.67;0.90;;;;;;;24.00;32.93;101166.94;4195788;28;19943;-66
2023/11/08 05:45:11;;;;;;;;;;;;;;;23.99;32.59;101163.41;4196226;28;20044;-64
2023/11/08 05:47:13;;;;;;;2.97;0.90;;;;;;;23.97;32.72;101164.53;4197804;28;19951;-64
2023/11/08 05:49:15;;;;;;;2.63;0.80;;;;;;;23.98;32.86;101158.19;4197095;28;20538;-64
2023/11/08 05:51:17;;;;;;;2.20;0.93;;;;;;;23.97;32.83;101149.25;4198696;28;20082;-66
2023/11/08 05:53:20;;;;;;;;;;;;;;;23.96;33.01;101146.72;4199153;28;20511;-64
2023/11/08 05:55:22;;;;;;;2.10;0.80;;;;;;;23.95;33.15;101150.38;4198770;28;20232;-64
2023/11/08 05:57:23;;;;;;;3.20;1.00;;;;;;;23.97;32.84;101146.56;4198727;28;20048;-64
2023/11/08 05:59:30;;;;;;;3.65;1.00;;;;;;;24.00;32.74;101149.00;4198583;28;20075;-65
2023/11/08 06:01:31;;;;;;;2.13;0.80;;;;;;;24.01;32.70;101149.84;4198705;28;20068;-65
2023/11/08 06:03:33;;;;;;;3.30;0.90;;;;;;;24.05;32.95;101154.84;4197128;28;20053;-65
2023/11/08 06:05:35;;;;;;;;;;;;;;;24.02;32.96;101159.63;4198958;28;20041;-65
2023/11/08 06:07:36;;;;;;;2.53;0.73;;;;;;;23.98;32.67;101164.41;4198555;28;19920;-65
2023/11/08 06:09:38;;;;;;;3.20;0.90;;;;;;;23.94;32.89;101149.53;4198536;28;20503;-65
2023/11/08 06:11:40;;;;;;;;;;;;;;;23.97;32.70;101165.38;4199187;28;20131;-65
2023/11/08 06:13:46;;;;;;;2.28;0.80;;;;;;;23.95;32.99;101162.00;4198464;28;19982;-65
2023/11/08 06:15:48;;;;;;;2.17;0.70;;;;;;;23.97;32.99;101161.84;4198404;28;20128;-65
2023/11/08 06:17:52;;;;;;;3.22;1.10;;;;;;;23.97;33.05;101154.63;4198017;28;20071;-65
2023/11/08 06:19:54;;;;;;;2.83;0.88;;;;;;;23.98;32.95;101152.81;4198557;28;20052;-65
2023/11/08 06:21:56;;;;;;;2.83;1.00;;;;;;;23.99;32.95;101154.53;4198231;28;20474;-65
2023/11/08 06:23:59;;;;;;;;;;;;;;;24.00;32.54;101158.88;4198675;28;20570;-65
2023/11/08 06:26:01;;;;;;;3.05;0.80;;;;;;;24.01;32.75;101164.16;4198142;28;20314;-65
2023/11/08 06:28:02;;;;;;;;;;;;;;;24.03;32.69;101156.78;4198811;28;20072;-65
2023/11/08 06:30:04;;;;;;;2.15;0.80;;;;;;;24.02;32.76;101160.50;4198330;28;20385;-65
2023/11/08 06:32:07;;;;;;;3.40;0.95;;;;;;;24.05;32.91;101156.69;4197847;28;20048;-65
2023/11/08 06:34:09;;;;;;;2.30;0.80;;;;;;;24.00;32.64;101151.69;4198160;28;20115;-64
2023/11/08 06:36:11;;;;;;;2.72;0.73;;;;;;;24.01;32.80;101164.16;4198199;28;20110;-65
2023/11/08 06:38:13;;;;;;;2.80;1.00;;;;;;;23.92;32.90;101154.16;4198182;28;20044;-65
2023/11/08 06:40:15;;;;;;;2.92;1.00;;;;;;;23.95;33.06;101167.38;4198188;28;20051;-64
2023/11/08 06:42:17;;;;;;;2.55;0.85;;;;;;;23.98;32.99;101171.63;4198047;28;20044;-67
2023/11/08 06:44:18;;;;;;;2.88;0.95;;;;;;;23.93;32.61;101161.25;4197934;28;20045;-65
2023/11/08 06:46:20;;;;;;;2.60;1.08;;;;;;;24.00;32.89;101167.81;4196460;28;20044;-65
2023/11/08 06:48:21;;;;;;;2.17;0.90;;;;;;;24.03;32.84;101175.59;4198011;28;20045;-65
2023/11/08 06:50:28;;;;;;;3.10;1.10;;;;;;;24.03;32.55;101178.28;4197931;28;20051;-65
2023/11/08 06:52:30;;;;;;;2.85;1.00;;;;;;;24.04;32.59;101182.69;4197942;28;20056;-64
2023/11/08 06:54:33;;;;;;;;;;;;;;;24.02;32.75;101190.03;4198341;28;20480;-64
2023/11/08 06:56:34;;;;;;;2.55;1.05;;;;;;;23.96;32.57;101179.78;4197582;28;20355;-64
2023/11/08 06:58:36;;;;;;;3.60;1.35;;;;;;;23.93;32.66;101182.75;4197805;28;20071;-65
2023/11/08 07:00:42;;;;;;;1.73;0.80;;;;;;;23.95;32.90;101190.69;4197344;28;20051;-64
2023/11/08 07:02:49;;;;;;;2.30;0.80;;;;;;;23.96;32.96;101195.91;4197779;28;20044;-64
2023/11/08 07:04:50;;;;;;;2.30;0.85;;;;;;;23.98;32.99;101193.13;4197614;28;20114;-65
2023/11/08 07:06:52;;;;;;;;;;;;;;;23.98;32.74;101191.28;4198112;28;20045;-64
2023/11/08 07:08:54;;;;;;;3.55;1.00;;;;;;;24.00;32.93;101193.81;4197628;28;19927;-64
2023/11/08 07:10:55;;;;;;;;;;;;;;;24.02;32.48;101192.72;4197981;28;20044;-64
2023/11/08 07:12:57;;;;;;;2.38;0.95;;;;;;;24.00;32.52;101191.13;4197645;28;19920;-64
2023/11/08 07:14:59;;;;;;;2.72;1.10;;;;;;;24.03;32.66;101204.31;4197335;28;20105;-64
2023/11/08 07:17:03;;;;;;;2.97;1.05;;;;;;;24.02;32.68;101194.53;4197308;28;20076;-63
2023/11/08 07:19:04;;;;;;;2.28;1.00;;;;;;;24.06;32.76;101202.22;4197291;28;20044;-64
2023/11/08 07:21:06;;;;;;;2.70;1.00;;;;;;;24.06;32.67;101199.53;4197692;28;20114;-64
2023/11/08 07:23:13;;;;;;;2.33;0.95;;;;;;;24.03;32.33;101207.00;4197162;28;20072;-64
2023/11/08 07:25:15;;;;;;;2.50;0.85;;;;;;;23.95;32.69;101193.38;4197384;28;20045;-65
2023/11/08 07:27:17;;;;;;;1.90;0.80;;;;;;;23.93;32.58;101199.72;4197210;28;20565;-64
2023/11/08 07:29:22;;;;;;;2.72;0.90;;;;;;;23.95;32.46;101190.69;4196904;28;20072;-65
2023/11/08 07:31:23;;;;;;;2.70;1.00;;;;;;;23.97;32.65;101196.78;4197070;28;20518;-65
2023/11/08 07:33:25;;;;;;;3.10;1.00;;;;;;;23.99;32.64;101195.66;4197241;28;20495;-65
2023/11/08 07:35:27;;;;;;;;;;;;;;;23.96;32.86;101197.75;4197573;28;20044;-65
2023/11/08 07:37:28;;;;;;;2.33;0.82;;;;;;;23.96;32.58;101198.59;4197020;28;19964;-66
2023/11/08 07:39:30;;;;;;;;;;;;;;;23.96;32.59;101205.81;4197683;28;20099;-65
2023/11/08 07:41:33;;;;;;;2.72;0.82;;;;;;;23.94;32.57;101197.91;4197000;28;19920;-65
2023/11/08 07:43:35;;;;;;;2.72;0.90;;;;;;;23.92;32.89;101197.13;4195219;28;20170;-65
2023/11/08 07:45:36;;;;;;;;;;;;;;;23.89;32.66;101197.38;4197505;28;20098;-65
2023/11/08 07:47:38;;;;;;;2.10;1.00;;;;;;;23.83;32.79;101196.09;4196941;28;19989;-65
2023/11/08 07:49:40;;;;;;;;;;;;;;;23.83;32.92;101203.28;4197241;28;20110;-65
2023/11/08 07:51:43;;;;;;;2.83;0.90;;;;;;;23.79;33.00;101201.84;4196967;28;20011;-65
2023/11/08 07:53:45;;;;;;;2.83;0.98;;;;;;;23.79;32.99;101208.06;4196967;28;20052;-65
2023/11/08 07:55:49;;;;;;;2.28;0.85;;;;;;;23.80;32.95;101207.06;4196902;28;20223;-65
2023/11/08 07:57:51;;;;;;;3.38;1.02;;;;;;;23.74;33.02;101195.03;4196499;28;20055;-65
2023/11/08 07:59:52;;;;;;;;;;;;;;;23.85;32.84;101204.00;4197280;28;20059;-65
2023/11/08 08:01:54;;;;;;;3.50;1.05;;;;;;;23.81;32.89;101203.41;4196916;28;20345;-64
2023/11/08 08:03:56;;;;;;;;;;;;;;;23.88;32.81;101196.53;4196908;28;20120;-65
2023/11/08 08:05:59;;;;;;;2.38;0.90;;;;;;;23.87;32.60;101194.84;4196878;28;19963;-65
2023/11/08 08:08:00;;;;;;;2.88;0.95;;;;;;;23.85;32.67;101204.00;4196746;28;20055;-65
2023/11/08 08:10:02;;;;;;;2.72;1.00;;;;;;;23.80;32.52;101201.69;4196505;28;20044;-65
2023/11/08 08:12:07;;;;;;;2.88;1.08;;;;;;;23.74;32.98;101191.47;4196700;28;20049;-64
2023/11/08 08:14:09;;;;;;;2.65;1.08;;;;;;;23.79;33.02;101205.38;4196329;28;20040;-65
2023/11/08 08:16:10;;;;;;;2.72;1.13;;;;;;;23.82;33.05;101201.59;4196814;28;20435;-65
2023/11/08 08:18:12;;;;;;;;;;;;;;;23.85;32.63;101204.00;4197138;28;20424;-65
2023/11/08 08:20:14;;;;;;;2.72;0.95;;;;;;;23.85;32.93;101202.19;4197005;28;19935;-65
2023/11/08 08:22:15;;;;;;;;;;;;;;;23.87;32.42;101207.41;4197169;28;20044;-65
2023/11/08 08:24:20;;;;;;;3.40;0.90;;;;;;;23.85;32.82;101202.19;4195403;28;19937;-64
2023/11/08 08:26:21;;;;;;;2.17;0.90;;;;;;;23.92;32.73;101200.69;4196447;28;20094;-64
2023/11/08 08:28:23;;;;;;;;;;;;;;;23.96;32.50;101203.97;4196677;28;20048;-65
2023/11/08 08:30:25;;;;;;;3.00;1.00;;;;;;;23.95;32.58;101207.66;4196606;28;19956;-64
2023/11/08 08:32:27;;;;;;;;;;;;;;;23.94;32.48;101205.97;4197063;28;20119;-64
2023/11/08 08:34:29;;;;;;;2.75;0.98;;;;;;;23.95;32.77;101196.06;4196436;28;20012;-64
2023/11/08 08:36:33;;;;;;;2.42;0.80;;;;;;;23.96;32.51;101195.06;4196280;28;20119;-64
2023/11/08 08:38:37;;;;;;;3.00;1.10;;;;;;;23.99;32.42;101201.03;4196558;28;20063;-64
2023/11/08 08:40:39;;;;;;;2.33;0.80;;;;;;;24.00;32.74;101216.19;4196466;28;20071;-65
2023/11/08 08:42:42;;;;;;;2.67;0.80;;;;;;;24.03;32.45;101204.31;4196113;28;20083;-64
2023/11/08 08:44:44;;;;;;;3.30;0.90;;;;;;;23.98;32.55;101202.00;4196173;28;20055;-65
2023/11/08 08:46:46;;;;;;;2.88;1.00;;;;;;;24.04;32.35;101217.59;4196344;28;20052;-65
2023/11/08 08:48:49;;;;;;;3.75;1.00;;;;;;;24.02;32.46;101221.41;4196304;28;20052;-65
2023/11/08 08:50:51;;;;;;;2.22;0.90;;;;;;;24.02;32.51;101214.22;4196566;28;20443;-65
2023/11/08 08:52:53;;;;;;;2.40;0.90;;;;;;;23.99;32.45;101214.47;4196258;28;20094;-65
2023/11/08 08:54:55;;;;;;;2.65;0.90;;;;;;;23.93;32.65;101204.25;4195968;28;20131;-66
2023/11/08 08:56:58;;;;;;;2.75;1.00;;;;;;;23.92;32.55;101199.81;4195856;28;20116;-65
2023/11/08 08:59:01;;;;;;;3.78;1.10;;;;;;;23.93;32.67;101193.50;4196241;28;20080;-65
2023/11/08 09:01:04;;;;;;;2.92;1.10;;;;;;;23.97;32.58;101192.25;4196225;28;20045;-66
2023/11/08 09:03:07;;;;;;;2.45;1.00;;;;;;;23.98;32.38;101185.91;4196165;28;20052;-65
2023/11/08 09:05:08;;;;;;;2.90;1.02;;;;;;;23.98;32.29;101177.84;4196173;28;20063;-66
2023/11/08 09:07:11;;;;;;;3.55;1.08;;;;;;;23.99;32.62;101176.03;4196332;28;20044;-65
2023/11/08 09:09:14;;;;;;;4.25;1.15;;;;;;;23.97;32.62;101169.91;4196159;28;20484;-65
2023/11/08 09:11:16;;;;;;;3.30;1.00;;;;;;;24.02;32.35;101170.38;4195528;28;20045;-67
2023/11/08 09:13:18;;;;;;;2.92;1.10;;;;;;;24.04;32.77;101173.78;4194431;28;20131;-67
2023/11/08 09:15:20;;;;;;;3.53;1.10;;;;;;;23.97;32.50;101173.44;4182963;28;20102;-66
2023/11/08 09:17:23;;;;;;;4.47;0.93;;;;;;;23.99;32.85;101166.09;4197673;28;20052;-67
2023/11/08 09:19:24;;;;;;;3.30;1.13;;;;;;;23.97;32.71;101159.16;4205177;28;20427;-67
2023/11/08 09:21:26;;;;;;;2.58;1.15;;;;;;;24.03;32.51;101172.06;4209659;28;20110;-64
2023/11/08 09:23:29;;;;;;;;;;;;;;;24.05;32.41;101172.81;4206562;28;20044;-65
2023/11/08 09:25:31;;;;;;;4.22;1.30;;;;;;;24.05;32.19;101179.00;4195312;28;20292;-64
2023/11/08 09:27:33;;;;;;;;;;;;;;;24.07;32.24;101173.50;4199023;28;20052;-63
2023/11/08 09:29:35;;;;;;;5.30;1.60;;;;;;;24.03;32.17;101164.84;4198440;28;19924;-66
2023/11/08 09:31:38;;;;;;;4.10;1.40;;;;;;;24.11;32.04;101166.03;4198392;28;20442;-67
2023/11/08 09:33:39;;;;;;;3.83;1.40;;;;;;;24.13;32.37;101181.03;4206143;28;20143;-67
2023/11/08 09:35:41;;;;;;;;;;;;;;;24.13;31.99;101172.97;4215639;28;20064;-68
2023/11/08 09:37:43;;;;;;;5.70;1.70;;;;;;;24.11;32.35;101177.66;4215162;28;19931;-70